Terminal Aerodrome Forecast
Issued by NWS

Home | Current Version | Previous Version | Graphics & Text | Print | Product List | Glossary On
Versions: 1 2 3 4 5 6 7 8 9 10 11 12 13 14
000
FTUS43 KTOP 021437 AAC
TAFFOE
TAF AMD
KFOE 021437Z 0215/0312 18010KT P6SM BKN120
      TEMPO 0215/0216 6SM -SHRA BKN100
     FM021600 19013G22KT P6SM SCT100
     FM030000 17007KT P6SM FEW120=

USA.gov is the U.S. government's official web portal to all federal, state and local government web resources and services.